PILOTS ONLINE: 493    ATC ONLINE: 77

NZWN - Wellington International Airport

Location

IATA WLG
City Wellington
Country  New Zealand
Latitude 41° 19' 37" S
Longitude 174° 48' 17" E
Elevation 41 ft
Type Large Airport

Runways

16/34 6352 ft / 148 ft

Weather

METAR
2014/07/22 15:00
NZWN 221500Z AUTO 20028KT 7000 -RA SCT036/// OVC044/// 10/06 Q1005 TEMPO 4000 RA
TAF
2014/07/22 12:03
TAF NZWN 221101Z 2212/2312 21015G25KT 9999 -RA SCT030 BKN050 
      TEMPO 2212/2220 4000 RA 
      TEMPO 2220/2310 6000 SHRA 
      BECMG 2223/2301 20012KT

Outbound flights

Inbound flights